createdAt,value
2018-06-22T00:01:17.101Z,100568.71
2018-06-22T00:03:45.074Z,100569.23
2018-06-22T00:06:12.660Z,100569.58
2018-06-22T00:08:40.235Z,100568.36
2018-06-22T00:11:09.917Z,100567.15
2018-06-22T00:13:37.580Z,100561.94
2018-06-22T00:16:05.169Z,100562.42
2018-06-22T00:18:33.669Z,100556.70
2018-06-22T00:21:02.258Z,100561.72
2018-06-22T00:23:29.897Z,100557.34
2018-06-22T00:26:00.091Z,100557.47
2018-06-22T00:28:28.089Z,100552.23
2018-06-22T00:30:55.758Z,100557.12
2018-06-22T00:33:24.250Z,100566.39
2018-06-22T00:35:52.341Z,100563.70
2018-06-22T00:38:20.726Z,100560.51
2018-06-22T00:40:48.342Z,100562.02
2018-06-22T00:43:16.006Z,100552.88
2018-06-22T00:45:43.838Z,100551.47
2018-06-22T00:48:11.409Z,100545.72
2018-06-22T00:50:38.996Z,100544.67
2018-06-22T00:53:06.554Z,100548.00
2018-06-22T00:55:34.394Z,100543.45
2018-06-22T00:58:01.966Z,100545.44
2018-06-22T01:00:29.534Z,100538.73
2018-06-22T01:02:58.257Z,100535.75
2018-06-22T01:05:26.105Z,100532.58
2018-06-22T01:07:53.662Z,100529.90
2018-06-22T01:10:22.690Z,100528.91
2018-06-22T01:12:50.877Z,100525.88
2018-06-22T01:15:18.445Z,100516.83
2018-06-22T01:17:46.696Z,100522.70
2018-06-22T01:20:14.261Z,100527.08
2018-06-22T01:22:41.850Z,100532.45
2018-06-22T01:25:09.410Z,100525.39
2018-06-22T01:27:36.996Z,100524.53
2018-06-22T01:30:04.566Z,100520.50
2018-06-22T01:32:33.694Z,100511.10
2018-06-22T01:35:02.881Z,100516.47
2018-06-22T01:37:30.473Z,100520.63
2018-06-22T01:39:58.561Z,100520.16
2018-06-22T01:42:26.168Z,100528.08
2018-06-22T01:44:53.760Z,100522.19
2018-06-22T01:47:21.357Z,100525.88
2018-06-22T01:49:49.047Z,100516.95
2018-06-22T01:52:16.622Z,100520.63
2018-06-22T01:54:44.195Z,100517.02
2018-06-22T01:57:11.766Z,100517.67
2018-06-22T01:59:39.558Z,100506.93
2018-06-22T02:02:07.130Z,100514.63
2018-06-22T02:04:34.737Z,100514.98
2018-06-22T02:07:02.359Z,100519.36
2018-06-22T02:09:29.948Z,100512.65
2018-06-22T02:11:57.556Z,100499.36
2018-06-22T02:14:25.189Z,100496.83
2018-06-22T02:16:52.780Z,100507.06
2018-06-22T02:19:20.355Z,100495.14
2018-06-22T02:21:47.942Z,100503.80
2018-06-22T02:24:15.809Z,100499.08
2018-06-22T02:26:43.374Z,100508.13
2018-06-22T02:29:11.023Z,100505.09
2018-06-22T02:31:38.606Z,100497.67
2018-06-22T02:34:06.180Z,100491.58
2018-06-22T02:36:34.393Z,100495.25
2018-06-22T02:39:02.258Z,100496.59
2018-06-22T02:41:29.847Z,100497.11
2018-06-22T02:43:57.770Z,100499.56
2018-06-22T02:46:25.646Z,100507.62
2018-06-22T02:48:54.786Z,100501.91
2018-06-22T02:51:22.702Z,100498.64
2018-06-22T02:53:50.319Z,100503.79
2018-06-22T02:56:17.941Z,100498.64
2018-06-22T02:58:45.549Z,100499.80
2018-06-22T03:01:13.456Z,100504.43
2018-06-22T03:03:41.079Z,100507.75
2018-06-22T03:06:08.688Z,100502.33
2018-06-22T03:08:36.563Z,100502.23
2018-06-22T03:11:04.153Z,100496.64
2018-06-22T03:13:31.739Z,100497.75
2018-06-22T03:16:00.342Z,100505.09
2018-06-22T03:18:27.926Z,100496.60
2018-06-22T03:20:55.498Z,100497.37
2018-06-22T03:23:23.093Z,100498.64
2018-06-22T03:25:50.661Z,100492.58
2018-06-22T03:28:18.252Z,100487.20
2018-06-22T03:30:45.862Z,100491.36
2018-06-22T03:33:14.267Z,100481.97
2018-06-22T03:35:41.853Z,100479.41
2018-06-22T03:38:09.722Z,100479.06
2018-06-22T03:40:37.301Z,100476.38
2018-06-22T03:43:04.928Z,100472.88
2018-06-22T03:45:32.528Z,100465.66
2018-06-22T03:48:00.115Z,100467.86
2018-06-22T03:50:27.698Z,100463.61
2018-06-22T03:52:55.291Z,100467.63
2018-06-22T03:55:24.083Z,100470.95
2018-06-22T03:57:51.683Z,100470.85
2018-06-22T04:00:19.558Z,100468.58
2018-06-22T04:02:47.146Z,100463.70
2018-06-22T04:05:14.718Z,100465.03
2018-06-22T04:07:42.303Z,100471.39
2018-06-22T04:10:10.923Z,100460.19
2018-06-22T04:12:38.508Z,100461.36
2018-06-22T04:15:06.358Z,100458.91
2018-06-22T04:17:38.274Z,100462.58
2018-06-22T04:20:05.859Z,100455.88
2018-06-22T04:22:33.718Z,100449.88
2018-06-22T04:25:01.322Z,100450.73
2018-06-22T04:27:29.718Z,100444.67
2018-06-22T04:29:57.559Z,100443.81
2018-06-22T04:32:25.146Z,100439.31
2018-06-22T04:34:52.729Z,100448.06
2018-06-22T04:37:20.582Z,100456.80
2018-06-22T04:39:49.119Z,100455.81
2018-06-22T04:42:17.319Z,100447.30
2018-06-22T04:44:45.180Z,100451.80
2018-06-22T04:47:12.788Z,100436.47
2018-06-22T04:49:40.389Z,100444.67
2018-06-22T04:52:08.247Z,100437.97
2018-06-22T04:54:38.798Z,100444.39
2018-06-22T04:57:06.391Z,100442.22
2018-06-22T04:59:35.283Z,100450.33
2018-06-22T05:02:02.878Z,100448.34
2018-06-22T05:04:30.458Z,100441.52
2018-06-22T05:07:00.286Z,100446.41
2018-06-22T05:09:27.880Z,100454.29
2018-06-22T05:11:55.458Z,100455.02
2018-06-22T05:14:23.371Z,100465.11
2018-06-22T05:16:50.983Z,100453.87
2018-06-22T05:19:19.338Z,100463.48
2018-06-22T05:21:47.195Z,100457.06
2018-06-22T05:24:15.706Z,100459.23
2018-06-22T05:26:43.292Z,100450.59
2018-06-22T05:29:11.152Z,100459.20
2018-06-22T05:31:38.751Z,100460.39
2018-06-22T05:34:06.340Z,100470.28
2018-06-22T05:36:34.451Z,100463.07
2018-06-22T05:39:02.943Z,100458.09
2018-06-22T05:41:30.564Z,100473.80
2018-06-22T05:43:59.318Z,100473.33
2018-06-22T05:46:26.917Z,100478.05
2018-06-22T05:48:55.492Z,100487.31
2018-06-22T05:51:23.347Z,100482.30
2018-06-22T05:53:52.323Z,100477.80
2018-06-22T05:56:19.903Z,100476.45
2018-06-22T05:58:48.606Z,100475.11
2018-06-22T06:01:16.196Z,100479.97
2018-06-22T06:03:43.791Z,100482.71
2018-06-22T06:06:11.754Z,100481.14
2018-06-22T06:08:39.348Z,100485.68
2018-06-22T06:11:07.025Z,100486.03
2018-06-22T06:13:34.618Z,100491.23
2018-06-22T06:16:02.285Z,100482.58
2018-06-22T06:18:30.181Z,100489.06
2018-06-22T06:20:58.614Z,100496.12
2018-06-22T06:23:26.330Z,100494.66
2018-06-22T06:25:54.338Z,100500.85
2018-06-22T06:28:22.810Z,100499.38
2018-06-22T06:30:50.406Z,100499.86
2018-06-22T06:33:18.284Z,100501.20
2018-06-22T06:35:45.857Z,100494.02
2018-06-22T06:38:13.460Z,100518.03
2018-06-22T06:40:41.350Z,100516.53
2018-06-22T06:43:08.918Z,100528.48
2018-06-22T06:45:36.514Z,100517.75
2018-06-22T06:48:05.009Z,100531.16
2018-06-22T06:50:32.620Z,100533.49
2018-06-22T06:53:00.187Z,100545.56
2018-06-22T06:55:28.083Z,100547.73
2018-06-22T06:57:55.675Z,100544.35
2018-06-22T07:00:23.572Z,100564.59
2018-06-22T07:02:51.461Z,100560.95
2018-06-22T07:05:19.066Z,100569.48
2018-06-22T07:07:46.654Z,100565.23
2018-06-22T07:10:15.149Z,100567.21
2018-06-22T07:12:42.755Z,100570.30
2018-06-22T07:15:10.374Z,100569.44
2018-06-22T07:20:18.470Z,100574.38
2018-06-22T07:22:46.326Z,100577.66
2018-06-22T07:25:14.694Z,100579.28
2018-06-22T07:27:43.106Z,100587.80
2018-06-22T07:30:11.296Z,100594.03
2018-06-22T07:32:39.926Z,100596.84
2018-06-22T07:35:08.365Z,100600.50
2018-06-22T07:37:38.347Z,100601.72
2018-06-22T07:40:06.834Z,100604.28
2018-06-22T07:42:34.418Z,100603.14
2018-06-22T07:45:02.918Z,100598.64
2018-06-22T07:47:30.503Z,100611.53
2018-06-22T07:49:58.099Z,100609.24
2018-06-22T07:52:26.590Z,100617.89
2018-06-22T07:54:54.196Z,100617.06
2018-06-22T07:57:21.910Z,100616.55
2018-06-22T07:59:50.390Z,100613.87
2018-06-22T08:02:17.966Z,100621.08
2018-06-22T08:04:45.554Z,100617.53
2018-06-22T08:07:14.451Z,100616.19
2018-06-22T08:09:42.054Z,100614.86
2018-06-22T08:12:09.638Z,100612.17
2018-06-22T08:14:37.517Z,100613.74
2018-06-22T08:17:05.329Z,100619.97
2018-06-22T08:19:32.903Z,100615.31
2018-06-22T08:22:02.600Z,100617.88
2018-06-22T08:24:30.190Z,100617.88
2018-06-22T08:26:57.778Z,100622.02
2018-06-22T08:29:25.642Z,100614.09
2018-06-22T08:31:53.217Z,100617.64
2018-06-22T08:34:21.447Z,100618.12
2018-06-22T08:36:49.561Z,100623.00
2018-06-22T08:39:17.162Z,100623.61
2018-06-22T08:41:44.780Z,100627.38
2018-06-22T08:44:12.512Z,100629.19
2018-06-22T08:46:41.301Z,100625.59
2018-06-22T08:49:09.770Z,100627.16
2018-06-22T08:51:39.570Z,100629.80
2018-06-22T08:54:07.148Z,100624.77
2018-06-22T08:56:36.300Z,100631.54
2018-06-22T08:59:04.576Z,100632.12
2018-06-22T09:01:32.223Z,100629.41
2018-06-22T09:04:00.091Z,100627.66
2018-06-22T09:06:27.712Z,100630.45
2018-06-22T09:08:56.886Z,100619.66
2018-06-22T09:11:25.599Z,100631.55
2018-06-22T09:13:53.196Z,100631.88
2018-06-22T09:16:24.480Z,100640.13
2018-06-22T09:18:52.338Z,100639.00
2018-06-22T09:21:21.584Z,100637.30
2018-06-22T09:23:49.216Z,100637.53
2018-06-22T09:26:18.660Z,100643.55
2018-06-22T09:28:46.265Z,100639.52
2018-06-22T09:31:13.881Z,100639.00
2018-06-22T09:33:41.821Z,100639.93
2018-06-22T09:36:09.406Z,100636.48
2018-06-22T09:38:37.005Z,100635.06
2018-06-22T09:41:04.877Z,100636.86
2018-06-22T09:43:33.839Z,100632.05
2018-06-22T09:46:01.493Z,100629.81
2018-06-22T09:48:29.442Z,100633.30
2018-06-22T09:50:59.378Z,100635.05
2018-06-22T09:53:27.536Z,100636.83
2018-06-22T09:56:00.615Z,100646.94
2018-06-22T09:58:28.313Z,100640.09
2018-06-22T10:00:57.079Z,100646.30
2018-06-22T10:03:25.211Z,100647.29
2018-06-22T10:05:53.762Z,100647.80
2018-06-22T10:08:22.252Z,100646.81
2018-06-22T10:10:52.910Z,100651.06
2018-06-22T10:13:20.526Z,100652.11
2018-06-22T10:15:55.324Z,100655.31
2018-06-22T10:18:24.467Z,100653.55
2018-06-22T10:20:52.200Z,100650.91
2018-06-22T10:23:20.759Z,100650.48
2018-06-22T10:25:48.667Z,100648.15
2018-06-22T10:28:17.420Z,100651.41
2018-06-22T10:30:45.021Z,100645.50
2018-06-22T10:33:12.891Z,100643.25
2018-06-22T10:35:40.922Z,100651.23
2018-06-22T10:38:09.554Z,100644.94
2018-06-22T10:40:38.733Z,100651.96
2018-06-22T10:43:06.326Z,100648.62
2018-06-22T10:45:33.919Z,100648.68
2018-06-22T10:48:02.036Z,100658.52
2018-06-22T10:50:30.389Z,100654.48
2018-06-22T10:52:59.375Z,100654.75
2018-06-22T10:55:28.228Z,100655.88
2018-06-22T10:58:10.172Z,100659.05
2018-06-22T11:00:39.689Z,100658.17
2018-06-22T11:03:08.469Z,100656.81
2018-06-22T11:05:37.399Z,100648.50
2018-06-22T11:08:06.382Z,100651.48
2018-06-22T11:10:33.976Z,100637.06
2018-06-22T11:13:04.230Z,100637.27
2018-06-22T11:15:39.422Z,100645.04
2018-06-22T11:18:09.411Z,100641.86
2018-06-22T11:20:37.423Z,100656.25
2018-06-22T11:23:06.207Z,100652.83
2018-06-22T11:25:37.107Z,100662.48
2018-06-22T11:28:08.321Z,100667.09
2018-06-22T11:30:38.239Z,100673.91
2018-06-22T11:33:06.566Z,100671.63
2018-06-22T11:35:37.443Z,100669.19
2018-06-22T11:38:05.040Z,100676.84
2018-06-22T11:40:35.158Z,100674.63
2018-06-22T11:43:08.636Z,100675.62
2018-06-22T11:45:37.327Z,100683.12
2018-06-22T11:48:04.954Z,100680.87
2018-06-22T11:50:33.979Z,100682.52
2018-06-22T11:53:01.612Z,100695.62
2018-06-22T11:55:32.037Z,100692.20
2018-06-22T11:58:01.443Z,100703.55
2018-06-22T12:00:29.069Z,100694.62
2018-06-22T12:02:59.663Z,100698.00
2018-06-22T12:05:28.150Z,100691.02
2018-06-22T12:07:55.738Z,100682.65
2018-06-22T12:10:23.322Z,100679.53
2018-06-22T12:12:52.074Z,100675.41
2018-06-22T12:15:20.111Z,100677.87
2018-06-22T12:17:48.407Z,100687.77
2018-06-22T12:20:17.113Z,100677.00
2018-06-22T12:22:45.207Z,100685.05
2018-06-22T12:25:13.354Z,100682.00
2018-06-22T12:27:41.275Z,100671.62
2018-06-22T12:30:09.661Z,100676.28
2018-06-22T12:32:37.247Z,100664.66
2018-06-22T12:35:07.025Z,100665.91
2018-06-22T12:37:35.008Z,100676.64
2018-06-22T12:40:02.633Z,100672.02
2018-06-22T12:42:30.524Z,100668.42
2018-06-22T12:44:59.074Z,100668.86
2018-06-22T12:47:27.822Z,100671.16
2018-06-22T12:49:55.702Z,100665.72
2018-06-22T12:52:23.301Z,100673.03
2018-06-22T12:54:52.146Z,100673.26
2018-06-22T12:57:20.769Z,100668.47
2018-06-22T12:59:48.702Z,100672.73
2018-06-22T13:02:16.320Z,100669.12
2018-06-22T13:04:46.582Z,100671.77
2018-06-22T13:07:14.458Z,100667.47
2018-06-22T13:09:42.057Z,100667.27
2018-06-22T13:12:10.952Z,100665.00
2018-06-22T13:14:38.547Z,100685.30
2018-06-22T13:17:06.197Z,100693.64
2018-06-22T13:19:34.076Z,100687.47
2018-06-22T13:22:01.844Z,100707.17
2018-06-22T13:24:29.466Z,100705.17
2018-06-22T13:26:57.318Z,100704.23
2018-06-22T13:29:25.694Z,100709.90
2018-06-22T13:31:53.299Z,100703.75
2018-06-22T13:34:21.147Z,100713.12
2018-06-22T13:36:49.520Z,100703.15
2018-06-22T13:39:19.866Z,100697.20
2018-06-22T13:41:48.253Z,100694.41
2018-06-22T13:44:16.858Z,100695.41
2018-06-22T13:46:44.441Z,100694.06
2018-06-22T13:49:12.626Z,100705.91
2018-06-22T13:51:40.390Z,100708.33
2018-06-22T13:54:07.963Z,100713.92
2018-06-22T13:56:37.205Z,100710.09
2018-06-22T13:59:04.828Z,100713.69
2018-06-22T14:01:33.342Z,100713.89
2018-06-22T14:04:06.280Z,100720.33
2018-06-22T14:06:39.326Z,100714.66
2018-06-22T14:09:11.088Z,100712.31
2018-06-22T14:11:39.381Z,100719.26
2018-06-22T14:14:10.065Z,100716.91
2018-06-22T14:16:38.581Z,100717.09
2018-06-22T14:19:07.251Z,100707.03
2018-06-22T14:21:35.230Z,100718.50
2018-06-22T14:24:03.127Z,100712.45
2018-06-22T14:26:30.795Z,100710.84
2018-06-22T14:28:59.482Z,100710.18
2018-06-22T14:31:28.334Z,100717.47
2018-06-22T14:33:56.452Z,100715.47
2018-06-22T14:36:26.630Z,100719.72
2018-06-22T14:38:56.432Z,100724.10
2018-06-22T14:41:27.322Z,100727.45
2018-06-22T14:43:57.531Z,100731.49
2018-06-22T14:46:27.738Z,100731.49
2018-06-22T14:48:56.307Z,100728.48
2018-06-22T14:51:25.272Z,100723.16
2018-06-22T14:53:58.825Z,100722.58
2018-06-22T14:56:31.654Z,100723.50
2018-06-22T14:59:05.319Z,100720.96
2018-06-22T15:01:38.889Z,100721.08
2018-06-22T15:04:11.839Z,100718.36
2018-06-22T15:06:44.342Z,100726.70
2018-06-22T15:09:12.539Z,100723.35
2018-06-22T15:11:41.019Z,100724.18
2018-06-22T15:14:09.447Z,100722.34
2018-06-22T15:16:37.945Z,100719.79
2018-06-22T15:19:07.238Z,100714.73
2018-06-22T15:21:36.035Z,100717.81
2018-06-22T15:24:05.306Z,100720.19
2018-06-22T15:26:33.570Z,100712.78
2018-06-22T15:29:03.602Z,100710.43
2018-06-22T15:31:31.477Z,100712.84
2018-06-22T15:34:04.147Z,100712.17
2018-06-22T15:36:37.348Z,100705.43
2018-06-22T15:39:10.740Z,100705.77
2018-06-22T15:41:44.259Z,100702.41
2018-06-22T15:44:17.190Z,100710.84
2018-06-22T15:46:49.742Z,100708.33
2018-06-22T15:49:23.485Z,100719.61
2018-06-22T15:51:56.498Z,100715.56
2018-06-22T15:55:33.338Z,100719.12
2018-06-22T15:58:02.631Z,100720.66
2018-06-22T16:00:32.590Z,100719.48
2018-06-22T16:03:05.118Z,100711.93
2018-06-22T16:05:32.976Z,100719.75
2018-06-22T16:08:01.099Z,100730.08
2018-06-22T16:10:29.694Z,100731.14
2018-06-22T16:12:57.579Z,100733.70
2018-06-22T16:15:30.199Z,100733.70
2018-06-22T16:18:02.771Z,100737.08
2018-06-22T16:20:35.979Z,100726.42
2018-06-22T16:23:08.520Z,100731.68
2018-06-22T16:25:41.470Z,100733.71
2018-06-22T16:28:09.706Z,100733.71
2018-06-22T16:30:37.477Z,100734.40
2018-06-22T16:33:10.939Z,100741.34
2018-06-22T16:35:39.070Z,100737.98
2018-06-22T16:38:07.282Z,100734.98
2018-06-22T16:40:35.148Z,100736.88
2018-06-22T16:43:02.744Z,100739.42
2018-06-22T16:45:31.106Z,100743.64
2018-06-22T16:47:59.674Z,100733.70
2018-06-22T16:50:28.103Z,100734.05
2018-06-22T16:52:55.689Z,100730.53
2018-06-22T16:55:23.556Z,100728.69
2018-06-22T16:57:51.146Z,100738.97
2018-06-22T17:00:19.447Z,100729.17
2018-06-22T17:02:49.291Z,100736.08
2018-06-22T17:05:18.087Z,100744.36
2018-06-22T17:07:53.384Z,100748.20
2018-06-22T17:10:26.354Z,100748.02
2018-06-22T17:12:58.854Z,100750.03
2018-06-22T17:15:31.379Z,100748.83
2018-06-22T17:18:04.233Z,100751.67
2018-06-22T17:20:31.860Z,100748.48
2018-06-22T17:23:00.588Z,100746.27
2018-06-22T17:25:28.468Z,100743.09
2018-06-22T17:27:56.723Z,100746.27
2018-06-22T17:30:24.633Z,100749.83
2018-06-22T17:32:52.526Z,100752.39
2018-06-22T17:35:20.166Z,100755.43
2018-06-22T17:37:48.426Z,100761.17
2018-06-22T17:40:16.534Z,100759.97
2018-06-22T17:42:47.203Z,100752.02
2018-06-22T17:45:16.083Z,100757.73
2018-06-22T17:47:47.288Z,100755.70
2018-06-22T17:50:24.452Z,100756.34
2018-06-22T17:52:52.046Z,100754.10
2018-06-22T17:55:21.776Z,100755.29
2018-06-22T17:57:50.719Z,100759.97
2018-06-22T18:00:23.245Z,100760.78
2018-06-22T18:02:56.209Z,100760.95
2018-06-22T18:05:29.383Z,100762.94
2018-06-22T18:07:57.499Z,100764.95
2018-06-22T18:10:31.266Z,100766.44
2018-06-22T18:13:00.054Z,100764.92
2018-06-22T18:15:28.723Z,100768.59
2018-06-22T18:17:56.365Z,100766.91
2018-06-22T18:20:24.676Z,100781.92
2018-06-22T18:22:53.127Z,100785.77
2018-06-22T18:25:20.710Z,100785.71
2018-06-22T18:27:48.309Z,100791.91
2018-06-22T18:30:18.469Z,100790.22
2018-06-22T18:32:46.777Z,100791.88
2018-06-22T18:35:17.674Z,100798.77
2018-06-22T18:37:45.565Z,100791.62
2018-06-22T18:40:13.431Z,100789.72
2018-06-22T18:42:43.258Z,100794.95
2018-06-22T18:45:12.719Z,100789.48
2018-06-22T18:47:42.059Z,100793.67
2018-06-22T18:50:10.452Z,100793.64
2018-06-22T18:54:46.364Z,100800.02
2018-06-22T18:57:21.609Z,100799.11
2018-06-22T18:59:52.728Z,100808.17
2018-06-22T19:02:25.910Z,100796.70
2018-06-22T19:04:55.313Z,100796.84
2018-06-22T19:07:24.568Z,100807.80
2018-06-22T19:09:53.774Z,100813.84
2018-06-22T19:12:24.795Z,100815.81
2018-06-22T19:14:52.829Z,100813.64
2018-06-22T19:17:21.222Z,100822.21
2018-06-22T19:19:49.082Z,100824.56
2018-06-22T19:22:16.673Z,100818.47
2018-06-22T19:24:44.495Z,100826.36
2018-06-22T19:27:12.385Z,100831.67
2018-06-22T19:29:40.222Z,100827.45
2018-06-22T19:32:08.586Z,100834.47
2018-06-22T19:34:42.212Z,100840.00
2018-06-22T19:37:10.798Z,100840.66
2018-06-22T19:39:38.375Z,100849.88
2018-06-22T19:42:09.270Z,100850.53
2018-06-22T19:44:44.251Z,100847.80
2018-06-22T19:47:16.918Z,100848.58
2018-06-22T19:49:49.723Z,100852.41
2018-06-22T19:52:22.222Z,100853.55
2018-06-22T19:54:50.396Z,100848.25
2018-06-22T19:57:18.508Z,100857.95
2018-06-22T19:59:47.305Z,100852.30
2018-06-22T20:02:16.342Z,100859.82
2018-06-22T20:04:45.126Z,100868.55
2018-06-22T20:07:13.626Z,100863.44
2018-06-22T20:09:42.066Z,100870.47
2018-06-22T20:12:11.206Z,100871.89
2018-06-22T20:14:41.218Z,100874.02
2018-06-22T20:17:09.788Z,100876.63
2018-06-22T20:19:38.769Z,100881.94
2018-06-22T20:22:08.235Z,100887.23
2018-06-22T20:24:42.267Z,100889.48
2018-06-22T20:27:11.176Z,100888.09
2018-06-22T20:29:39.503Z,100890.34
2018-06-22T20:32:10.456Z,100892.33
2018-06-22T20:34:43.272Z,100885.89
2018-06-22T20:37:15.911Z,100895.09
2018-06-22T20:39:48.783Z,100895.87
2018-06-22T20:42:22.218Z,100890.91
2018-06-22T20:44:55.069Z,100891.17
2018-06-22T20:49:30.254Z,100893.28
2018-06-22T20:52:02.439Z,100892.23
2018-06-22T20:54:32.165Z,100895.56
2018-06-22T20:56:59.753Z,100899.02
2018-06-22T20:59:27.691Z,100902.13
2018-06-22T21:01:55.571Z,100910.69
2018-06-22T21:04:23.258Z,100906.42
2018-06-22T21:06:51.130Z,100905.20
2018-06-22T21:09:20.274Z,100915.62
2018-06-22T21:11:48.651Z,100913.56
2018-06-22T21:14:17.558Z,100910.05
2018-06-22T21:16:45.151Z,100915.68
2018-06-22T21:19:13.386Z,100918.02
2018-06-22T21:21:46.326Z,100924.87
2018-06-22T21:24:17.464Z,100921.47
2018-06-22T21:26:46.322Z,100922.75
2018-06-22T21:29:20.419Z,100920.95
2018-06-22T21:31:53.795Z,100925.63
2018-06-22T21:34:26.614Z,100928.34
2018-06-22T21:36:59.956Z,100927.63
2018-06-22T21:39:28.061Z,100929.26
2018-06-22T21:41:57.198Z,100930.02
2018-06-22T21:44:26.014Z,100923.67
2018-06-22T21:46:54.592Z,100920.75
2018-06-22T21:49:22.172Z,100932.27
2018-06-22T21:51:49.806Z,100923.62
2018-06-22T21:54:18.317Z,100926.43
2018-06-22T21:56:48.078Z,100933.08
2018-06-22T21:59:16.474Z,100932.14
2018-06-22T22:01:50.231Z,100934.59
2018-06-22T22:04:18.649Z,100938.52
2018-06-22T22:06:47.199Z,100938.80
2018-06-22T22:09:14.795Z,100941.25
2018-06-22T22:11:47.434Z,100936.62
2018-06-22T22:14:15.310Z,100934.58
2018-06-22T22:16:42.906Z,100936.16
2018-06-22T22:19:10.499Z,100939.25
2018-06-22T22:21:42.258Z,100941.22
2018-06-22T22:24:11.700Z,100945.37
2018-06-22T22:26:39.583Z,100942.61
2018-06-22T22:29:08.775Z,100949.08
2018-06-22T22:31:37.442Z,100940.91
2018-06-22T22:34:06.130Z,100944.34
2018-06-22T22:36:34.472Z,100941.45
2018-06-22T22:39:03.330Z,100939.37
2018-06-22T22:41:33.213Z,100939.64
2018-06-22T22:44:02.016Z,100938.77
2018-06-22T22:46:32.582Z,100936.36
2018-06-22T22:49:01.410Z,100936.36
2018-06-22T22:51:29.002Z,100934.66
2018-06-22T22:53:58.712Z,100936.48
2018-06-22T22:56:26.607Z,100934.66
2018-06-22T22:58:55.279Z,100931.47
2018-06-22T23:01:24.317Z,100927.95
2018-06-22T23:03:52.690Z,100926.96
2018-06-22T23:06:20.266Z,100919.89
2018-06-22T23:08:48.443Z,100919.03
2018-06-22T23:11:18.281Z,100925.11
2018-06-22T23:13:46.946Z,100925.50
2018-06-22T23:16:15.329Z,100921.95
2018-06-22T23:18:43.315Z,100921.95
2018-06-22T23:21:10.939Z,100921.67
2018-06-22T23:23:38.910Z,100927.80
2018-06-22T23:26:06.890Z,100922.06
2018-06-22T23:28:34.465Z,100927.80
2018-06-22T23:31:04.147Z,100925.11
2018-06-22T23:33:32.458Z,100927.44
2018-06-22T23:36:00.755Z,100918.52
2018-06-22T23:38:30.589Z,100919.38
2018-06-22T23:40:58.450Z,100920.72
2018-06-22T23:43:26.866Z,100917.17
2018-06-22T23:45:54.447Z,100916.55
2018-06-22T23:48:22.114Z,100917.77
2018-06-22T23:50:49.702Z,100914.60
2018-06-22T23:53:17.590Z,100919.58
2018-06-22T23:55:45.303Z,100915.44
2018-06-22T23:58:12.902Z,100912.27
